ASP weather

Alice Springs Airport
Alice Springs, Northern Territory, Australia

Public forecast

Using degrees Celsius for public forecast. Weather courtesy of forecast.io.

METAR (pilot weather report)

Retrieved 2019/01/20 02:00 UTC (31 minutes ago):

YBAS 200200Z AUTO 10019G30KT 9999 // NCD 40/05 Q1013 RF00.0/000.0

TAF (pilot weather forecast)

Forecast is more than 12 hours old.

Retrieved 2019/01/19 00:00 UTC (1 day ago):

TAF YBAS 192305Z 2000/2024 11012KT CAVOK FM200200 09016G26KT CAVOK FM200800 10012KT CAVOK FM201200 06006KT CAVOK